Sierra Vista Municipal Libby Army Air Field Fort Huachuca Sierra Vista US
ICAO: KFHU
IATA: FHU
Category: Medium
Scheduled Services: Yes

Elevation: 4719 ft
TransAlt. 18000 ft.

Airport Communications:
ASOS:119.675
ATIS:134.75
CTAF:124.95
LIBBY GCA:127.05
GND:121.7
LIBBY OPS:122.95
LIBBY TWR:124.95
UNICOM:122.95

KFHU Zoom In..

Runways:

(A) RW 03 length 4285 ft width 75 ft
---- / hdg 24

(B) RW 08 length 12001 ft width 150 ft
---- / hdg 77

(C) RW 12 length 5366 ft width 100 ft
---- / hdg 114

(D) RW 21 length 4285 ft width 75 ft
---- / hdg 204

(E) RW 26 length 12001 ft width 150 ft
ILS 109.90 / hdg 257

(F) RW 30 length 5366 ft width 100 ft
---- / hdg 294

Location; KFHU
Day. 20 / Time. 02.20 Zulu
* Altimeter: 30.18
* Temperature: 23° c. 73.4°f.
* Wind from: VRB° Speed 05 kn with Gusts up to 25 kn.
Dewpoint: 17° c.
Visibility: 10 Statute Miles.
Clouds: Broken 4100 ft.
Clouds: Broken 800 ft.

KFHU 200220Z VRB05G25KT 10SM -TSRA BKN041 BKN80 23/17 A3018 RMK PRESRR SLP147 VIS LWR W


Wind From VRB°
Speed 05 kn.

 
 
jpsmedia.com for Web Design worldairports.se 2018   terms of use